• Join FlightAware (Why Join?)
  • Login
  • US Flag 
08:09AM EDT


 

Airport Tracker/Info


-or-


 

Live Flight TrackerFlight Track Log ✈ AMF1990 ✈ 17-Dec-2013 ✈ KCRP - KMAF

Flight Track Log - Related Links

Times and Time Zones

All times are in EST time to prevent confusion due to time zone crossing. See the AMF1990 flight status page for this flight to view local times or setup timezone preferences in your user account.

Time Position Orientation Groundspeed Altitude Reporting Facility
EST Latitude Longitude Course Direction KTS MPH feet Rate Location/Type
09:35AM 27.7656 -97.5036 213° Southwest 101 116 700  Level Houston Center
09:36AM 27.7492 -97.5156 213° Southwest 143 165 2,200 2,460 Climbing Houston Center
09:36AM 27.7489 -97.5247 268° West 130 150 2,500 2,100 Climbing Houston Center
09:37AM 27.7567 -97.5636 283° West 179 206 4,400 2,340 Climbing Houston Center
09:37AM 27.7639 -97.5678 333° Northwest 191 220 4,900 2,880 Climbing Houston Center
09:38AM 27.8019 -97.6000 323° Northwest 181 208 7,400 2,700 Climbing Houston Center
09:38AM 27.8058 -97.6047 313° West 183 211 7,600 2,460 Climbing Houston Center
09:39AM 27.8419 -97.6342 324° Northwest 179 206 10,000 2,340 Climbing Houston Center
09:40AM 27.8836 -97.6703 323° Northwest 186 214 12,300 2,340 Climbing Houston Center
09:41AM 27.9281 -97.7094 322° Northwest 197 227 14,900 1,320 Climbing Houston Center
09:42AM 27.9781 -97.7569 320° Northwest 241 277 15,100  Climbing Houston Center
09:43AM 28.0375 -97.8106 321° Northwest 266 306 15,000 1,440 Descending Houston Center
09:44AM 28.0867 -97.8600 318° Northwest 210 242 18,200 2,400 Climbing Houston Center
09:45AM 28.1064 -97.9136 293° West 183 211 20,000 840 Climbing Houston Center
09:46AM 28.1333 -97.9781 295° West 223 257 20,000  Level Houston Center
09:47AM 28.1756 -98.0422 307° West 247 284 20,000  Level Houston Center
09:48AM 28.2356 -98.0872 327° Northwest 254 292 20,000  Level Houston Center
09:49AM 28.2994 -98.1394 324° Northwest 256 295 20,000  Level Houston Center
09:50AM 28.3578 -98.1889 323° Northwest 257 296 20,000  Level Houston Center
09:51AM 28.4178 -98.2375 325° Northwest 259 298 20,000  Level Houston Center
09:52AM 28.4761 -98.2886 322° Northwest 259 298 20,000  Level Houston Center
09:53AM 28.5361 -98.3353 326° Northwest 259 298 20,000 -60 Level Houston Center
09:54AM 28.6022 -98.3867 326° Northwest 259 298 19,900  Descending Houston Center
09:55AM 28.6778 -98.3867 360° North 265 305 20,000  Climbing Houston Center
09:56AM 28.7553 -98.3964 354° North 267 307 20,000  Level Houston Center
09:57AM 28.8286 -98.4061 353° North 264 304 20,000  Level Houston Center
09:58AM 28.9078 -98.4147 355° North 265 305 20,000  Level Houston Center
09:59AM 28.9808 -98.4211 356° North 264 304 20,000  Level Houston Center
10:00AM 29.0606 -98.4300 354° North 265 305 20,000  Level Houston Center
10:01AM 29.1339 -98.4347 357° North 263 303 20,000  Level Houston Center
10:02AM 29.2136 -98.4392 357° North 266 306 20,000  Level Houston Center
10:03AM 29.2878 -98.4442 357° North 267 307 20,000  Level Houston Center
10:05AM 29.3619 -98.4489 357° North 268 308 20,000  Level Houston Center
10:06AM 29.4425 -98.4536 357° North 268 308 20,000  Level Houston Center
10:07AM 29.5103 -98.4583 357° North 265 305 20,000  Level Houston Center
10:08AM 29.5739 -98.4928 335° Northwest 258 297 20,000  Level Houston Center
10:09AM 29.6253 -98.5706 307° West 259 298 20,000  Level Houston Center
10:10AM 29.6694 -98.6350 308° West 256 295 20,000  Level Houston Center
10:11AM 29.7175 -98.7047 308° West 258 297 20,000  Level Houston Center
10:12AM 29.7592 -98.7717 306° West 258 297 20,000  Level Houston Center
10:13AM 29.8042 -98.8442 306° West 257 296 20,000  Level Houston Center
10:14AM 29.8458 -98.9114 306° West 259 298 20,000  Level Houston Center
10:15AM 29.8917 -98.9836 306° West 259 298 20,000  Level Houston Center
10:16AM 29.9342 -99.0519 306° West 261 300 20,000  Level Houston Center
10:17AM 29.9767 -99.1150 308° West 259 298 20,000  Level Houston Center
10:18AM 30.0206 -99.1822 307° West 264 304 20,000  Level Houston Center
10:19AM 30.0653 -99.2489 308° West 264 304 20,000  Level Houston Center
10:20AM 30.1178 -99.3297 307° West 264 304 20,000  Level Houston Center
10:21AM 30.1661 -99.3942 311° West 266 306 20,000  Level Houston Center
10:22AM 30.2114 -99.4608 308° West 265 305 20,000  Level Houston Center
10:23AM 30.2542 -99.5286 306° West 264 304 20,000  Level Houston Center
10:24AM 30.2992 -99.5956 308° West 264 304 20,000  Level Houston Center
10:25AM 30.3511 -99.6761 307° West 262 302 20,000  Level Houston Center
10:26AM 30.3942 -99.7439 306° West 264 304 20,000  Level Houston Center
10:27AM 30.4389 -99.8111 308° West 265 305 20,000  Level Houston Center
10:28AM 30.4822 -99.8800 306° West 265 305 20,000  Level Houston Center
10:29AM 30.5256 -99.9492 306° West 267 307 20,000  Level Houston Center
10:30AM 30.5686 -100.0161 307° West 261 300 20,000  Level Houston Center
10:31AM 30.6214 -100.0978 307° West 263 303 20,000  Level Houston Center
10:32AM 30.6664 -100.1647 308° West 264 304 20,000  Level Houston Center
10:34AM 30.7122 -100.2322 308° West 267 307 20,000  Level Houston Center
10:35AM 30.7567 -100.3003 307° West 266 306 20,000  Level Houston Center
10:36AM 30.8017 -100.3692 307° West 268 308 20,000  Level Houston Center
10:37AM 30.8550 -100.4500 308° West 265 305 20,000  Level Houston Center
10:38AM 30.8994 -100.5192 307° West 268 308 20,000  Level Houston Center
10:39AM 30.9444 -100.5883 307° West 269 310 20,000  Level Houston Center
10:40AM 30.9889 -100.6567 307° West 268 308 20,000  Level Houston Center
10:41AM 31.0353 -100.7242 309° West 268 308 20,000  Level Houston Center
10:42AM 31.0900 -100.8067 308° West 269 310 20,000  Level Houston Center
10:43AM 31.1364 -100.8742 309° West 269 310 20,000  Level Houston Center
10:44AM 31.1803 -100.9417 307° West 265 305 20,000  Level Houston Center
10:45AM 31.2244 -101.0139 306° West 270 311 20,000  Level Houston Center
10:46AM 31.2656 -101.0817 305° West 268 308 20,000  Level Houston Center
10:47AM 31.3194 -101.1653 307° West 268 308 20,000 -420 Level Houston Center
10:48AM 31.3656 -101.2364 307° West 272 313 19,200 -960 Descending Houston Center
10:49AM 31.4094 -101.3158 303° West 285 328 18,100 -1,020 Descending Houston Center
10:50AM 31.4550 -101.3947 304° West 292 336 17,200 -1,080 Descending Houston Center
10:51AM 31.5042 -101.4733 306° West 297 342 15,900 -1,440 Descending Houston Center
10:52AM 31.5642 -101.5650 308° West 297 342 14,200 -1,680 Descending Houston Center
10:53AM 31.6128 -101.6419 307° West 296 341 12,500 -1,680 Descending Houston Center
10:55AM 31.6786 -101.7464 307° West 284 327 10,000 -1,440 Descending Fort Worth Center
10:56AM 31.7361 -101.8292 309° West 276 318 8,900 -1,140 Descending Fort Worth Center
10:57AM 31.7814 -101.8953 309° West 270 311 7,700 -1,260 Descending Fort Worth Center
10:58AM 31.8269 -101.9592 310° West 262 302 6,400 -1,080 Descending Fort Worth Center
10:59AM 31.8708 -102.0203 310° West 255 293 5,500 -720 Descending Fort Worth Center
11:00AM 31.8994 -102.0864 297° West 241 277 5,000 -780 Descending Fort Worth Center
11:01AM 31.9194 -102.1408 293° West 207 238 4,000 -1,020 Descending Fort Worth Center
11:02AM 31.9375 -102.1922 293° West 170 196 3,000 -1,020 Descending Fort Worth Center